sensor_id;sensor_type;location;lat;lon;timestamp;P1;durP1;ratioP1;P2;durP2;ratioP2
15655;SDS011;7928;43.614;1.456;2023-01-13T00:00:11;26.60;;;13.53;;
15655;SDS011;7928;43.614;1.456;2023-01-13T00:02:39;19.10;;;12.90;;
15655;SDS011;7928;43.614;1.456;2023-01-13T00:05:06;25.67;;;13.87;;
15655;SDS011;7928;43.614;1.456;2023-01-13T00:07:34;18.90;;;11.23;;
15655;SDS011;7928;43.614;1.456;2023-01-13T00:10:02;22.47;;;11.87;;
15655;SDS011;7928;43.614;1.456;2023-01-13T00:12:30;24.83;;;12.00;;
15655;SDS011;7928;43.614;1.456;2023-01-13T00:14:58;21.60;;;11.87;;
15655;SDS011;7928;43.614;1.456;2023-01-13T00:17:25;19.33;;;10.60;;
15655;SDS011;7928;43.614;1.456;2023-01-13T00:19:52;19.97;;;11.00;;
15655;SDS011;7928;43.614;1.456;2023-01-13T00:22:20;20.27;;;11.07;;
15655;SDS011;7928;43.614;1.456;2023-01-13T00:24:47;21.43;;;11.33;;
15655;SDS011;7928;43.614;1.456;2023-01-13T00:27:14;19.80;;;11.57;;
15655;SDS011;7928;43.614;1.456;2023-01-13T00:29:41;20.93;;;10.93;;
15655;SDS011;7928;43.614;1.456;2023-01-13T00:32:10;17.63;;;10.10;;
15655;SDS011;7928;43.614;1.456;2023-01-13T00:34:37;18.63;;;10.80;;
15655;SDS011;7928;43.614;1.456;2023-01-13T00:37:04;18.27;;;10.13;;
15655;SDS011;7928;43.614;1.456;2023-01-13T00:39:32;15.63;;;10.00;;
15655;SDS011;7928;43.614;1.456;2023-01-13T00:41:59;23.30;;;10.53;;
15655;SDS011;7928;43.614;1.456;2023-01-13T00:44:43;15.00;;;9.70;;
15655;SDS011;7928;43.614;1.456;2023-01-13T00:47:12;19.50;;;9.80;;
15655;SDS011;7928;43.614;1.456;2023-01-13T00:49:39;15.50;;;9.37;;
15655;SDS011;7928;43.614;1.456;2023-01-13T00:52:06;17.83;;;9.77;;
15655;SDS011;7928;43.614;1.456;2023-01-13T00:54:33;20.47;;;9.13;;
15655;SDS011;7928;43.614;1.456;2023-01-13T00:57:00;18.33;;;10.03;;
15655;SDS011;7928;43.614;1.456;2023-01-13T00:59:27;16.13;;;9.57;;
15655;SDS011;7928;43.614;1.456;2023-01-13T01:01:54;16.03;;;9.17;;
15655;SDS011;7928;43.614;1.456;2023-01-13T01:04:23;21.73;;;9.83;;
15655;SDS011;7928;43.614;1.456;2023-01-13T01:06:50;16.43;;;9.27;;
15655;SDS011;7928;43.614;1.456;2023-01-13T01:09:17;17.10;;;10.10;;
15655;SDS011;7928;43.614;1.456;2023-01-13T01:11:44;21.93;;;10.70;;
15655;SDS011;7928;43.614;1.456;2023-01-13T01:14:11;18.17;;;10.37;;
15655;SDS011;7928;43.614;1.456;2023-01-13T01:16:39;15.87;;;9.40;;
15655;SDS011;7928;43.614;1.456;2023-01-13T01:19:06;16.93;;;9.70;;
15655;SDS011;7928;43.614;1.456;2023-01-13T01:21:36;17.47;;;8.93;;
15655;SDS011;7928;43.614;1.456;2023-01-13T01:24:04;16.50;;;9.63;;
15655;SDS011;7928;43.614;1.456;2023-01-13T01:26:31;18.10;;;8.77;;
15655;SDS011;7928;43.614;1.456;2023-01-13T01:28:58;15.00;;;8.80;;
15655;SDS011;7928;43.614;1.456;2023-01-13T01:31:27;19.67;;;8.90;;
15655;SDS011;7928;43.614;1.456;2023-01-13T01:33:56;17.57;;;8.70;;
15655;SDS011;7928;43.614;1.456;2023-01-13T01:36:24;16.73;;;8.07;;
15655;SDS011;7928;43.614;1.456;2023-01-13T01:38:54;17.60;;;8.87;;
15655;SDS011;7928;43.614;1.456;2023-01-13T01:41:22;19.23;;;7.47;;
15655;SDS011;7928;43.614;1.456;2023-01-13T01:43:51;15.47;;;8.27;;
15655;SDS011;7928;43.614;1.456;2023-01-13T01:46:26;14.47;;;7.20;;
15655;SDS011;7928;43.614;1.456;2023-01-13T01:48:54;11.73;;;7.07;;
15655;SDS011;7928;43.614;1.456;2023-01-13T01:51:25;15.80;;;6.77;;
15655;SDS011;7928;43.614;1.456;2023-01-13T01:53:56;15.50;;;6.37;;
15655;SDS011;7928;43.614;1.456;2023-01-13T01:56:25;13.93;;;6.03;;
15655;SDS011;7928;43.614;1.456;2023-01-13T01:58:52;15.83;;;7.10;;
15655;SDS011;7928;43.614;1.456;2023-01-13T02:01:20;14.03;;;6.20;;
15655;SDS011;7928;43.614;1.456;2023-01-13T02:03:49;11.90;;;6.20;;
15655;SDS011;7928;43.614;1.456;2023-01-13T02:06:22;14.10;;;5.83;;
15655;SDS011;7928;43.614;1.456;2023-01-13T02:08:51;10.27;;;5.77;;
15655;SDS011;7928;43.614;1.456;2023-01-13T02:11:30;14.93;;;6.00;;
15655;SDS011;7928;43.614;1.456;2023-01-13T02:14:16;10.97;;;5.83;;
15655;SDS011;7928;43.614;1.456;2023-01-13T02:16:46;12.27;;;4.93;;
15655;SDS011;7928;43.614;1.456;2023-01-13T02:19:41;13.40;;;5.63;;
15655;SDS011;7928;43.614;1.456;2023-01-13T02:26:03;9.03;;;5.53;;
15655;SDS011;7928;43.614;1.456;2023-01-13T02:28:55;13.00;;;5.30;;
15655;SDS011;7928;43.614;1.456;2023-01-13T02:31:55;11.37;;;5.23;;
15655;SDS011;7928;43.614;1.456;2023-01-13T02:34:28;13.33;;;4.77;;
15655;SDS011;7928;43.614;1.456;2023-01-13T02:37:11;13.30;;;5.03;;
15655;SDS011;7928;43.614;1.456;2023-01-13T02:39:44;11.90;;;5.70;;
15655;SDS011;7928;43.614;1.456;2023-01-13T02:42:21;11.33;;;6.00;;
15655;SDS011;7928;43.614;1.456;2023-01-13T02:45:10;18.30;;;5.23;;
15655;SDS011;7928;43.614;1.456;2023-01-13T02:47:43;13.07;;;5.47;;
15655;SDS011;7928;43.614;1.456;2023-01-13T02:50:15;13.30;;;5.03;;
15655;SDS011;7928;43.614;1.456;2023-01-13T02:52:46;15.33;;;5.57;;
15655;SDS011;7928;43.614;1.456;2023-01-13T02:55:17;10.43;;;5.23;;
15655;SDS011;7928;43.614;1.456;2023-01-13T02:57:49;9.80;;;5.10;;
15655;SDS011;7928;43.614;1.456;2023-01-13T03:00:18;11.57;;;5.33;;
15655;SDS011;7928;43.614;1.456;2023-01-13T03:02:47;10.40;;;5.87;;
15655;SDS011;7928;43.614;1.456;2023-01-13T03:05:15;14.73;;;5.73;;
15655;SDS011;7928;43.614;1.456;2023-01-13T03:07:49;12.50;;;5.50;;
15655;SDS011;7928;43.614;1.456;2023-01-13T03:10:51;11.63;;;5.23;;
15655;SDS011;7928;43.614;1.456;2023-01-13T03:13:31;8.93;;;5.00;;
15655;SDS011;7928;43.614;1.456;2023-01-13T03:16:14;14.40;;;5.57;;
15655;SDS011;7928;43.614;1.456;2023-01-13T03:18:49;11.73;;;5.33;;
15655;SDS011;7928;43.614;1.456;2023-01-13T03:21:27;12.33;;;5.77;;
15655;SDS011;7928;43.614;1.456;2023-01-13T03:24:02;10.03;;;4.60;;
15655;SDS011;7928;43.614;1.456;2023-01-13T03:26:35;9.60;;;4.87;;
15655;SDS011;7928;43.614;1.456;2023-01-13T03:29:08;10.10;;;4.83;;
15655;SDS011;7928;43.614;1.456;2023-01-13T03:31:41;11.00;;;4.33;;
15655;SDS011;7928;43.614;1.456;2023-01-13T03:34:14;9.40;;;4.40;;
15655;SDS011;7928;43.614;1.456;2023-01-13T03:36:47;12.07;;;5.40;;
15655;SDS011;7928;43.614;1.456;2023-01-13T03:39:18;14.33;;;4.60;;
15655;SDS011;7928;43.614;1.456;2023-01-13T03:41:50;12.20;;;5.00;;
15655;SDS011;7928;43.614;1.456;2023-01-13T03:44:25;9.50;;;4.57;;
15655;SDS011;7928;43.614;1.456;2023-01-13T03:46:58;8.43;;;5.10;;
15655;SDS011;7928;43.614;1.456;2023-01-13T03:49:32;9.37;;;4.90;;
15655;SDS011;7928;43.614;1.456;2023-01-13T03:52:04;7.33;;;4.33;;
15655;SDS011;7928;43.614;1.456;2023-01-13T03:54:38;10.67;;;4.77;;
15655;SDS011;7928;43.614;1.456;2023-01-13T03:57:11;12.43;;;4.97;;
15655;SDS011;7928;43.614;1.456;2023-01-13T03:59:41;10.07;;;5.07;;
15655;SDS011;7928;43.614;1.456;2023-01-13T04:02:13;10.27;;;4.57;;
15655;SDS011;7928;43.614;1.456;2023-01-13T04:04:46;14.30;;;5.20;;
15655;SDS011;7928;43.614;1.456;2023-01-13T04:07:19;11.80;;;4.73;;
15655;SDS011;7928;43.614;1.456;2023-01-13T04:09:55;10.03;;;4.30;;
15655;SDS011;7928;43.614;1.456;2023-01-13T04:12:24;7.73;;;4.83;;
15655;SDS011;7928;43.614;1.456;2023-01-13T04:15:13;17.47;;;5.23;;
15655;SDS011;7928;43.614;1.456;2023-01-13T04:17:41;11.73;;;4.63;;
15655;SDS011;7928;43.614;1.456;2023-01-13T04:20:10;12.27;;;4.80;;
15655;SDS011;7928;43.614;1.456;2023-01-13T04:22:38;10.70;;;4.80;;
15655;SDS011;7928;43.614;1.456;2023-01-13T04:25:05;9.80;;;4.37;;
15655;SDS011;7928;43.614;1.456;2023-01-13T04:27:33;11.30;;;4.93;;
15655;SDS011;7928;43.614;1.456;2023-01-13T04:30:00;12.40;;;4.77;;
15655;SDS011;7928;43.614;1.456;2023-01-13T04:32:27;12.20;;;5.57;;
15655;SDS011;7928;43.614;1.456;2023-01-13T04:34:54;10.30;;;4.93;;
15655;SDS011;7928;43.614;1.456;2023-01-13T04:37:23;9.67;;;4.77;;
15655;SDS011;7928;43.614;1.456;2023-01-13T04:39:50;11.10;;;4.70;;
15655;SDS011;7928;43.614;1.456;2023-01-13T04:42:17;11.17;;;4.80;;
15655;SDS011;7928;43.614;1.456;2023-01-13T04:44:44;10.37;;;4.87;;
15655;SDS011;7928;43.614;1.456;2023-01-13T04:47:11;13.10;;;4.67;;
15655;SDS011;7928;43.614;1.456;2023-01-13T04:49:38;7.83;;;4.27;;
15655;SDS011;7928;43.614;1.456;2023-01-13T04:52:05;12.17;;;4.73;;
15655;SDS011;7928;43.614;1.456;2023-01-13T04:54:33;11.17;;;4.70;;
15655;SDS011;7928;43.614;1.456;2023-01-13T04:57:01;10.73;;;4.73;;
15655;SDS011;7928;43.614;1.456;2023-01-13T04:59:27;8.93;;;3.90;;
15655;SDS011;7928;43.614;1.456;2023-01-13T05:01:54;10.33;;;4.80;;
15655;SDS011;7928;43.614;1.456;2023-01-13T05:04:22;7.43;;;4.33;;
15655;SDS011;7928;43.614;1.456;2023-01-13T05:06:49;10.10;;;4.40;;
15655;SDS011;7928;43.614;1.456;2023-01-13T05:09:16;9.87;;;4.27;;
15655;SDS011;7928;43.614;1.456;2023-01-13T05:11:44;11.37;;;4.37;;
15655;SDS011;7928;43.614;1.456;2023-01-13T05:14:28;8.47;;;3.97;;
15655;SDS011;7928;43.614;1.456;2023-01-13T05:17:15;9.33;;;4.07;;
15655;SDS011;7928;43.614;1.456;2023-01-13T05:19:45;6.60;;;3.90;;
15655;SDS011;7928;43.614;1.456;2023-01-13T05:22:12;8.73;;;4.00;;
15655;SDS011;7928;43.614;1.456;2023-01-13T05:24:57;12.40;;;4.50;;
15655;SDS011;7928;43.614;1.456;2023-01-13T05:27:43;8.10;;;4.50;;
15655;SDS011;7928;43.614;1.456;2023-01-13T05:30:10;11.17;;;4.87;;
15655;SDS011;7928;43.614;1.456;2023-01-13T05:32:38;8.20;;;4.40;;
15655;SDS011;7928;43.614;1.456;2023-01-13T05:35:05;9.50;;;4.80;;
15655;SDS011;7928;43.614;1.456;2023-01-13T05:37:32;12.00;;;5.20;;
15655;SDS011;7928;43.614;1.456;2023-01-13T05:40:00;9.37;;;5.03;;
15655;SDS011;7928;43.614;1.456;2023-01-13T05:42:45;9.83;;;4.77;;
15655;SDS011;7928;43.614;1.456;2023-01-13T05:45:30;14.57;;;5.73;;
15655;SDS011;7928;43.614;1.456;2023-01-13T05:47:57;8.87;;;4.93;;
15655;SDS011;7928;43.614;1.456;2023-01-13T05:50:24;10.87;;;4.80;;
15655;SDS011;7928;43.614;1.456;2023-01-13T05:52:51;11.43;;;4.60;;
15655;SDS011;7928;43.614;1.456;2023-01-13T05:55:18;9.83;;;4.20;;
15655;SDS011;7928;43.614;1.456;2023-01-13T05:57:47;8.47;;;4.17;;
15655;SDS011;7928;43.614;1.456;2023-01-13T06:00:14;10.60;;;3.90;;
15655;SDS011;7928;43.614;1.456;2023-01-13T06:02:42;8.57;;;3.90;;
15655;SDS011;7928;43.614;1.456;2023-01-13T06:05:09;9.47;;;4.63;;
15655;SDS011;7928;43.614;1.456;2023-01-13T06:07:36;9.57;;;4.60;;
15655;SDS011;7928;43.614;1.456;2023-01-13T06:10:03;11.00;;;4.27;;
15655;SDS011;7928;43.614;1.456;2023-01-13T06:12:31;7.73;;;4.97;;
15655;SDS011;7928;43.614;1.456;2023-01-13T06:15:00;10.27;;;4.63;;
15655;SDS011;7928;43.614;1.456;2023-01-13T06:17:27;14.40;;;5.07;;
15655;SDS011;7928;43.614;1.456;2023-01-13T06:19:54;9.43;;;4.90;;
15655;SDS011;7928;43.614;1.456;2023-01-13T06:22:22;13.27;;;5.70;;
15655;SDS011;7928;43.614;1.456;2023-01-13T06:24:50;11.97;;;5.00;;
15655;SDS011;7928;43.614;1.456;2023-01-13T06:27:20;10.20;;;4.67;;
15655;SDS011;7928;43.614;1.456;2023-01-13T06:29:47;11.30;;;4.10;;
15655;SDS011;7928;43.614;1.456;2023-01-13T06:32:17;11.33;;;4.53;;
15655;SDS011;7928;43.614;1.456;2023-01-13T06:34:48;8.33;;;4.77;;
15655;SDS011;7928;43.614;1.456;2023-01-13T06:37:18;7.67;;;4.33;;
15655;SDS011;7928;43.614;1.456;2023-01-13T06:39:49;11.77;;;5.27;;
15655;SDS011;7928;43.614;1.456;2023-01-13T06:42:18;9.50;;;5.50;;
15655;SDS011;7928;43.614;1.456;2023-01-13T06:45:02;10.63;;;4.20;;
15655;SDS011;7928;43.614;1.456;2023-01-13T06:47:31;8.83;;;4.33;;
15655;SDS011;7928;43.614;1.456;2023-01-13T06:49:58;9.07;;;4.37;;
15655;SDS011;7928;43.614;1.456;2023-01-13T06:52:25;7.77;;;4.20;;
15655;SDS011;7928;43.614;1.456;2023-01-13T06:54:54;8.63;;;3.93;;
15655;SDS011;7928;43.614;1.456;2023-01-13T06:57:21;9.90;;;3.60;;
15655;SDS011;7928;43.614;1.456;2023-01-13T06:59:48;10.33;;;4.20;;
15655;SDS011;7928;43.614;1.456;2023-01-13T07:02:16;8.20;;;4.60;;
15655;SDS011;7928;43.614;1.456;2023-01-13T07:04:44;7.87;;;3.50;;
15655;SDS011;7928;43.614;1.456;2023-01-13T07:07:11;9.33;;;3.63;;
15655;SDS011;7928;43.614;1.456;2023-01-13T07:09:39;9.57;;;3.67;;
15655;SDS011;7928;43.614;1.456;2023-01-13T07:12:06;6.30;;;3.17;;
15655;SDS011;7928;43.614;1.456;2023-01-13T07:14:34;8.73;;;3.50;;
15655;SDS011;7928;43.614;1.456;2023-01-13T07:17:18;7.27;;;3.73;;
15655;SDS011;7928;43.614;1.456;2023-01-13T07:19:50;9.47;;;3.33;;
15655;SDS011;7928;43.614;1.456;2023-01-13T07:22:17;10.47;;;3.63;;
15655;SDS011;7928;43.614;1.456;2023-01-13T07:24:45;6.30;;;3.07;;
15655;SDS011;7928;43.614;1.456;2023-01-13T07:27:12;15.03;;;2.97;;
15655;SDS011;7928;43.614;1.456;2023-01-13T07:29:39;11.70;;;3.00;;
15655;SDS011;7928;43.614;1.456;2023-01-13T07:32:08;8.70;;;3.00;;
15655;SDS011;7928;43.614;1.456;2023-01-13T07:34:35;6.33;;;2.67;;
15655;SDS011;7928;43.614;1.456;2023-01-13T07:37:03;6.93;;;3.10;;
15655;SDS011;7928;43.614;1.456;2023-01-13T07:39:30;6.00;;;2.43;;
15655;SDS011;7928;43.614;1.456;2023-01-13T07:41:57;5.60;;;2.47;;
15655;SDS011;7928;43.614;1.456;2023-01-13T07:44:42;6.83;;;2.47;;
15655;SDS011;7928;43.614;1.456;2023-01-13T07:47:09;8.90;;;2.53;;
15655;SDS011;7928;43.614;1.456;2023-01-13T07:49:36;7.33;;;2.20;;
15655;SDS011;7928;43.614;1.456;2023-01-13T07:52:04;7.83;;;2.93;;
15655;SDS011;7928;43.614;1.456;2023-01-13T07:54:31;4.70;;;1.93;;
15655;SDS011;7928;43.614;1.456;2023-01-13T07:56:59;8.10;;;2.10;;
15655;SDS011;7928;43.614;1.456;2023-01-13T07:59:26;5.63;;;1.97;;
15655;SDS011;7928;43.614;1.456;2023-01-13T08:01:53;4.63;;;1.80;;
15655;SDS011;7928;43.614;1.456;2023-01-13T08:04:21;4.67;;;1.67;;
15655;SDS011;7928;43.614;1.456;2023-01-13T08:06:48;6.73;;;1.93;;
15655;SDS011;7928;43.614;1.456;2023-01-13T08:09:16;8.07;;;1.80;;
15655;SDS011;7928;43.614;1.456;2023-01-13T08:11:43;3.93;;;1.50;;
15655;SDS011;7928;43.614;1.456;2023-01-13T08:14:31;5.63;;;2.00;;
15655;SDS011;7928;43.614;1.456;2023-01-13T08:16:59;7.03;;;2.40;;
15655;SDS011;7928;43.614;1.456;2023-01-13T08:19:26;4.93;;;1.73;;
15655;SDS011;7928;43.614;1.456;2023-01-13T08:21:53;6.73;;;1.90;;
15655;SDS011;7928;43.614;1.456;2023-01-13T08:24:21;4.93;;;1.60;;
15655;SDS011;7928;43.614;1.456;2023-01-13T08:26:48;7.87;;;2.00;;
15655;SDS011;7928;43.614;1.456;2023-01-13T08:29:15;6.10;;;1.63;;
15655;SDS011;7928;43.614;1.456;2023-01-13T08:31:42;7.83;;;1.40;;
15655;SDS011;7928;43.614;1.456;2023-01-13T08:34:09;2.67;;;1.20;;
15655;SDS011;7928;43.614;1.456;2023-01-13T08:36:36;4.33;;;1.80;;
15655;SDS011;7928;43.614;1.456;2023-01-13T08:39:04;6.87;;;1.57;;
15655;SDS011;7928;43.614;1.456;2023-01-13T08:41:32;7.87;;;1.83;;
15655;SDS011;7928;43.614;1.456;2023-01-13T08:44:17;4.47;;;1.10;;
15655;SDS011;7928;43.614;1.456;2023-01-13T08:46:44;3.63;;;1.20;;
15655;SDS011;7928;43.614;1.456;2023-01-13T08:49:11;7.93;;;1.70;;
15655;SDS011;7928;43.614;1.456;2023-01-13T08:51:38;5.53;;;1.40;;
15655;SDS011;7928;43.614;1.456;2023-01-13T08:54:05;4.63;;;1.20;;
15655;SDS011;7928;43.614;1.456;2023-01-13T08:56:33;4.33;;;1.70;;
15655;SDS011;7928;43.614;1.456;2023-01-13T08:59:01;5.10;;;1.20;;
15655;SDS011;7928;43.614;1.456;2023-01-13T09:01:28;3.17;;;1.30;;
15655;SDS011;7928;43.614;1.456;2023-01-13T09:03:56;2.83;;;1.37;;
15655;SDS011;7928;43.614;1.456;2023-01-13T09:06:23;4.43;;;1.53;;
15655;SDS011;7928;43.614;1.456;2023-01-13T09:08:50;6.00;;;1.57;;
15655;SDS011;7928;43.614;1.456;2023-01-13T09:11:17;3.83;;;1.83;;
15655;SDS011;7928;43.614;1.456;2023-01-13T09:14:05;3.57;;;1.30;;
15655;SDS011;7928;43.614;1.456;2023-01-13T09:16:32;5.50;;;1.20;;
15655;SDS011;7928;43.614;1.456;2023-01-13T09:18:59;5.97;;;1.33;;
15655;SDS011;7928;43.614;1.456;2023-01-13T09:21:26;3.17;;;1.50;;
15655;SDS011;7928;43.614;1.456;2023-01-13T09:23:53;4.27;;;1.23;;
15655;SDS011;7928;43.614;1.456;2023-01-13T09:26:20;4.70;;;1.70;;
15655;SDS011;7928;43.614;1.456;2023-01-13T09:28:47;5.43;;;1.60;;
15655;SDS011;7928;43.614;1.456;2023-01-13T09:31:15;5.73;;;1.33;;
15655;SDS011;7928;43.614;1.456;2023-01-13T09:33:42;5.73;;;1.60;;
15655;SDS011;7928;43.614;1.456;2023-01-13T09:36:27;3.33;;;1.23;;
15655;SDS011;7928;43.614;1.456;2023-01-13T09:38:54;6.90;;;1.83;;
15655;SDS011;7928;43.614;1.456;2023-01-13T09:41:22;3.50;;;1.17;;
15655;SDS011;7928;43.614;1.456;2023-01-13T09:44:09;4.33;;;1.80;;
15655;SDS011;7928;43.614;1.456;2023-01-13T09:46:45;6.50;;;1.63;;
15655;SDS011;7928;43.614;1.456;2023-01-13T09:49:17;6.07;;;1.50;;
15655;SDS011;7928;43.614;1.456;2023-01-13T09:51:49;3.30;;;1.33;;
15655;SDS011;7928;43.614;1.456;2023-01-13T09:54:21;5.50;;;1.73;;
15655;SDS011;7928;43.614;1.456;2023-01-13T09:56:56;3.93;;;1.03;;
15655;SDS011;7928;43.614;1.456;2023-01-13T09:59:25;3.77;;;1.20;;
15655;SDS011;7928;43.614;1.456;2023-01-13T10:01:57;2.23;;;1.30;;
15655;SDS011;7928;43.614;1.456;2023-01-13T10:04:28;2.60;;;1.37;;
15655;SDS011;7928;43.614;1.456;2023-01-13T10:06:56;2.37;;;1.00;;
15655;SDS011;7928;43.614;1.456;2023-01-13T10:09:29;2.43;;;1.20;;
15655;SDS011;7928;43.614;1.456;2023-01-13T10:12:00;2.60;;;0.90;;
15655;SDS011;7928;43.614;1.456;2023-01-13T10:14:48;2.13;;;1.00;;
15655;SDS011;7928;43.614;1.456;2023-01-13T10:17:20;2.33;;;1.10;;
15655;SDS011;7928;43.614;1.456;2023-01-13T10:19:54;1.77;;;1.10;;
15655;SDS011;7928;43.614;1.456;2023-01-13T10:25:22;5.77;;;0.83;;
15655;SDS011;7928;43.614;1.456;2023-01-13T10:28:04;2.93;;;0.83;;
15655;SDS011;7928;43.614;1.456;2023-01-13T10:30:35;1.57;;;0.90;;
15655;SDS011;7928;43.614;1.456;2023-01-13T10:33:08;2.53;;;1.00;;
15655;SDS011;7928;43.614;1.456;2023-01-13T10:38:30;2.90;;;0.90;;
15655;SDS011;7928;43.614;1.456;2023-01-13T10:41:04;2.10;;;0.83;;
15655;SDS011;7928;43.614;1.456;2023-01-13T10:43:42;1.30;;;0.67;;
15655;SDS011;7928;43.614;1.456;2023-01-13T10:46:10;3.13;;;1.20;;
15655;SDS011;7928;43.614;1.456;2023-01-13T10:48:42;1.73;;;0.70;;
15655;SDS011;7928;43.614;1.456;2023-01-13T10:51:18;3.03;;;1.13;;
15655;SDS011;7928;43.614;1.456;2023-01-13T10:53:52;1.87;;;0.77;;
15655;SDS011;7928;43.614;1.456;2023-01-13T10:56:22;1.27;;;0.57;;
15655;SDS011;7928;43.614;1.456;2023-01-13T10:58:50;2.40;;;0.70;;
15655;SDS011;7928;43.614;1.456;2023-01-13T11:01:20;1.63;;;0.70;;
15655;SDS011;7928;43.614;1.456;2023-01-13T11:03:55;2.33;;;0.63;;
15655;SDS011;7928;43.614;1.456;2023-01-13T11:06:23;3.17;;;0.90;;
15655;SDS011;7928;43.614;1.456;2023-01-13T11:08:52;1.80;;;0.70;;
15655;SDS011;7928;43.614;1.456;2023-01-13T11:11:37;1.70;;;1.00;;
15655;SDS011;7928;43.614;1.456;2023-01-13T11:14:07;4.28;;;0.80;;
15655;SDS011;7928;43.614;1.456;2023-01-13T11:17:02;2.00;;;0.90;;
15655;SDS011;7928;43.614;1.456;2023-01-13T11:19:38;2.67;;;0.80;;
15655;SDS011;7928;43.614;1.456;2023-01-13T11:22:08;2.20;;;0.60;;
15655;SDS011;7928;43.614;1.456;2023-01-13T11:24:41;2.23;;;0.80;;
15655;SDS011;7928;43.614;1.456;2023-01-13T11:27:15;4.03;;;0.90;;
15655;SDS011;7928;43.614;1.456;2023-01-13T11:29:52;3.67;;;0.93;;
15655;SDS011;7928;43.614;1.456;2023-01-13T11:32:34;2.17;;;0.53;;
15655;SDS011;7928;43.614;1.456;2023-01-13T11:35:13;0.90;;;0.60;;
15655;SDS011;7928;43.614;1.456;2023-01-13T11:37:44;1.47;;;0.60;;
15655;SDS011;7928;43.614;1.456;2023-01-13T11:40:17;1.10;;;0.60;;
15655;SDS011;7928;43.614;1.456;2023-01-13T11:42:53;2.23;;;0.80;;
15655;SDS011;7928;43.614;1.456;2023-01-13T11:45:27;3.77;;;0.80;;
15655;SDS011;7928;43.614;1.456;2023-01-13T11:47:59;0.83;;;0.40;;
15655;SDS011;7928;43.614;1.456;2023-01-13T11:50:31;1.92;;;0.60;;
15655;SDS011;7928;43.614;1.456;2023-01-13T11:53:08;3.55;;;0.88;;
15655;SDS011;7928;43.614;1.456;2023-01-13T11:55:48;10.02;;;1.05;;
15655;SDS011;7928;43.614;1.456;2023-01-13T11:58:33;1.85;;;0.50;;
15655;SDS011;7928;43.614;1.456;2023-01-13T12:01:32;1.20;;;0.47;;
15655;SDS011;7928;43.614;1.456;2023-01-13T12:04:22;2.23;;;0.80;;
15655;SDS011;7928;43.614;1.456;2023-01-13T12:06:55;3.63;;;0.80;;
15655;SDS011;7928;43.614;1.456;2023-01-13T12:09:38;1.27;;;0.63;;
15655;SDS011;7928;43.614;1.456;2023-01-13T12:12:24;2.10;;;0.60;;
15655;SDS011;7928;43.614;1.456;2023-01-13T12:17:54;1.97;;;0.70;;
15655;SDS011;7928;43.614;1.456;2023-01-13T12:20:33;2.47;;;0.70;;
15655;SDS011;7928;43.614;1.456;2023-01-13T12:23:12;2.23;;;0.90;;
15655;SDS011;7928;43.614;1.456;2023-01-13T12:25:49;1.57;;;0.80;;
15655;SDS011;7928;43.614;1.456;2023-01-13T12:28:23;3.60;;;0.80;;
15655;SDS011;7928;43.614;1.456;2023-01-13T12:30:56;3.93;;;1.07;;
15655;SDS011;7928;43.614;1.456;2023-01-13T12:33:39;1.90;;;0.67;;
15655;SDS011;7928;43.614;1.456;2023-01-13T12:36:14;2.80;;;0.70;;
15655;SDS011;7928;43.614;1.456;2023-01-13T12:38:54;2.15;;;1.00;;
15655;SDS011;7928;43.614;1.456;2023-01-13T12:41:29;2.93;;;0.77;;
15655;SDS011;7928;43.614;1.456;2023-01-13T12:44:23;1.83;;;0.70;;
15655;SDS011;7928;43.614;1.456;2023-01-13T12:46:50;1.90;;;0.70;;
15655;SDS011;7928;43.614;1.456;2023-01-13T12:49:23;3.22;;;0.52;;
15655;SDS011;7928;43.614;1.456;2023-01-13T12:52:00;1.47;;;0.80;;
15655;SDS011;7928;43.614;1.456;2023-01-13T12:58:01;2.70;;;0.82;;
15655;SDS011;7928;43.614;1.456;2023-01-13T13:00:57;1.60;;;0.70;;
15655;SDS011;7928;43.614;1.456;2023-01-13T13:03:27;2.65;;;0.85;;
15655;SDS011;7928;43.614;1.456;2023-01-13T13:06:06;3.28;;;1.10;;
15655;SDS011;7928;43.614;1.456;2023-01-13T13:11:40;4.90;;;0.90;;
15655;SDS011;7928;43.614;1.456;2023-01-13T13:17:39;3.58;;;0.90;;
15655;SDS011;7928;43.614;1.456;2023-01-13T13:20:50;4.27;;;0.87;;
15655;SDS011;7928;43.614;1.456;2023-01-13T13:23:25;2.88;;;0.90;;
15655;SDS011;7928;43.614;1.456;2023-01-13T13:26:04;3.28;;;1.00;;
15655;SDS011;7928;43.614;1.456;2023-01-13T13:28:43;1.83;;;1.08;;
15655;SDS011;7928;43.614;1.456;2023-01-13T13:31:20;1.92;;;0.77;;
15655;SDS011;7928;43.614;1.456;2023-01-13T13:34:04;1.88;;;0.73;;
15655;SDS011;7928;43.614;1.456;2023-01-13T13:36:58;2.88;;;1.13;;
15655;SDS011;7928;43.614;1.456;2023-01-13T13:39:39;4.40;;;0.90;;
15655;SDS011;7928;43.614;1.456;2023-01-13T13:42:25;4.68;;;1.30;;
15655;SDS011;7928;43.614;1.456;2023-01-13T13:45:13;1.75;;;0.70;;
15655;SDS011;7928;43.614;1.456;2023-01-13T13:50:47;1.60;;;0.75;;
15655;SDS011;7928;43.614;1.456;2023-01-13T13:53:16;3.60;;;1.13;;
15655;SDS011;7928;43.614;1.456;2023-01-13T13:55:51;4.63;;;1.05;;
15655;SDS011;7928;43.614;1.456;2023-01-13T13:58:21;2.42;;;0.55;;
15655;SDS011;7928;43.614;1.456;2023-01-13T14:00:51;5.80;;;1.35;;
15655;SDS011;7928;43.614;1.456;2023-01-13T14:03:23;2.80;;;0.80;;
15655;SDS011;7928;43.614;1.456;2023-01-13T14:05:52;3.85;;;0.90;;
15655;SDS011;7928;43.614;1.456;2023-01-13T14:08:21;3.67;;;1.17;;
15655;SDS011;7928;43.614;1.456;2023-01-13T14:10:49;2.78;;;0.90;;
15655;SDS011;7928;43.614;1.456;2023-01-13T14:13:18;2.72;;;1.00;;
15655;SDS011;7928;43.614;1.456;2023-01-13T14:15:47;3.50;;;0.80;;
15655;SDS011;7928;43.614;1.456;2023-01-13T14:18:21;4.10;;;0.90;;
15655;SDS011;7928;43.614;1.456;2023-01-13T14:20:53;3.38;;;1.15;;
15655;SDS011;7928;43.614;1.456;2023-01-13T14:23:24;1.90;;;0.90;;
15655;SDS011;7928;43.614;1.456;2023-01-13T14:25:52;2.63;;;1.00;;
15655;SDS011;7928;43.614;1.456;2023-01-13T14:28:20;3.63;;;0.90;;
15655;SDS011;7928;43.614;1.456;2023-01-13T14:30:50;4.53;;;1.33;;
15655;SDS011;7928;43.614;1.456;2023-01-13T14:33:19;3.33;;;1.27;;
15655;SDS011;7928;43.614;1.456;2023-01-13T14:36:05;4.20;;;1.10;;
15655;SDS011;7928;43.614;1.456;2023-01-13T14:38:36;2.37;;;0.83;;
15655;SDS011;7928;43.614;1.456;2023-01-13T14:41:17;5.67;;;1.37;;
15655;SDS011;7928;43.614;1.456;2023-01-13T14:43:47;3.03;;;1.07;;
15655;SDS011;7928;43.614;1.456;2023-01-13T14:46:16;2.70;;;0.90;;
15655;SDS011;7928;43.614;1.456;2023-01-13T14:48:46;3.57;;;0.90;;
15655;SDS011;7928;43.614;1.456;2023-01-13T14:51:22;4.20;;;1.47;;
15655;SDS011;7928;43.614;1.456;2023-01-13T14:53:52;4.47;;;1.10;;
15655;SDS011;7928;43.614;1.456;2023-01-13T14:56:39;4.07;;;1.13;;
15655;SDS011;7928;43.614;1.456;2023-01-13T15:01:57;3.60;;;0.87;;
15655;SDS011;7928;43.614;1.456;2023-01-13T15:04:30;2.87;;;0.67;;
15655;SDS011;7928;43.614;1.456;2023-01-13T15:07:01;2.03;;;0.80;;
15655;SDS011;7928;43.614;1.456;2023-01-13T15:09:31;3.73;;;0.80;;
15655;SDS011;7928;43.614;1.456;2023-01-13T15:12:12;3.03;;;0.80;;
15655;SDS011;7928;43.614;1.456;2023-01-13T15:14:42;4.17;;;1.17;;
15655;SDS011;7928;43.614;1.456;2023-01-13T15:17:14;6.10;;;1.60;;
15655;SDS011;7928;43.614;1.456;2023-01-13T15:19:44;5.37;;;1.30;;
15655;SDS011;7928;43.614;1.456;2023-01-13T15:22:11;2.80;;;0.87;;
15655;SDS011;7928;43.614;1.456;2023-01-13T15:24:38;3.20;;;0.90;;
15655;SDS011;7928;43.614;1.456;2023-01-13T15:27:11;4.27;;;1.37;;
15655;SDS011;7928;43.614;1.456;2023-01-13T15:29:43;2.90;;;0.93;;
15655;SDS011;7928;43.614;1.456;2023-01-13T15:32:13;5.63;;;1.40;;
15655;SDS011;7928;43.614;1.456;2023-01-13T15:34:45;8.27;;;1.70;;
15655;SDS011;7928;43.614;1.456;2023-01-13T15:37:12;5.43;;;1.30;;
15655;SDS011;7928;43.614;1.456;2023-01-13T15:39:41;3.27;;;1.33;;
15655;SDS011;7928;43.614;1.456;2023-01-13T15:42:10;5.23;;;2.17;;
15655;SDS011;7928;43.614;1.456;2023-01-13T15:44:55;4.17;;;1.57;;
15655;SDS011;7928;43.614;1.456;2023-01-13T15:47:40;8.63;;;3.43;;
15655;SDS011;7928;43.614;1.456;2023-01-13T15:50:13;5.53;;;1.70;;
15655;SDS011;7928;43.614;1.456;2023-01-13T15:52:41;6.07;;;1.80;;